sensor_id;sensor_type;location;lat;lon;timestamp;temperature;humidity
19279;DHT22;9773;47.062;15.446;2023-07-30T00:02:20;19.40;99.90
19279;DHT22;9773;47.062;15.446;2023-07-30T00:04:46;19.50;99.90
19279;DHT22;9773;47.062;15.446;2023-07-30T00:07:12;19.40;99.90
19279;DHT22;9773;47.062;15.446;2023-07-30T00:09:38;19.40;99.90
19279;DHT22;9773;47.062;15.446;2023-07-30T00:12:05;19.40;99.90
19279;DHT22;9773;47.062;15.446;2023-07-30T00:14:31;19.30;99.90
19279;DHT22;9773;47.062;15.446;2023-07-30T00:16:57;19.30;99.90
19279;DHT22;9773;47.062;15.446;2023-07-30T00:19:23;19.40;99.90
19279;DHT22;9773;47.062;15.446;2023-07-30T00:21:48;19.30;99.90
19279;DHT22;9773;47.062;15.446;2023-07-30T00:24:14;19.30;99.90
19279;DHT22;9773;47.062;15.446;2023-07-30T00:26:40;19.30;99.90
19279;DHT22;9773;47.062;15.446;2023-07-30T00:29:06;19.30;99.90
19279;DHT22;9773;47.062;15.446;2023-07-30T00:31:32;19.30;99.90
19279;DHT22;9773;47.062;15.446;2023-07-30T00:33:58;19.20;99.90
19279;DHT22;9773;47.062;15.446;2023-07-30T00:36:23;19.20;99.90
19279;DHT22;9773;47.062;15.446;2023-07-30T00:38:49;19.20;99.90
19279;DHT22;9773;47.062;15.446;2023-07-30T00:41:15;19.20;99.90
19279;DHT22;9773;47.062;15.446;2023-07-30T00:43:41;19.20;99.90
19279;DHT22;9773;47.062;15.446;2023-07-30T00:46:06;19.10;99.90
19279;DHT22;9773;47.062;15.446;2023-07-30T00:48:32;19.20;99.90
19279;DHT22;9773;47.062;15.446;2023-07-30T00:50:58;19.20;99.90
19279;DHT22;9773;47.062;15.446;2023-07-30T00:53:26;19.30;99.90
19279;DHT22;9773;47.062;15.446;2023-07-30T00:55:53;19.30;99.90
19279;DHT22;9773;47.062;15.446;2023-07-30T00:58:21;19.20;99.90
19279;DHT22;9773;47.062;15.446;2023-07-30T01:00:48;19.20;99.90
19279;DHT22;9773;47.062;15.446;2023-07-30T01:03:14;19.20;99.90
19279;DHT22;9773;47.062;15.446;2023-07-30T01:05:40;19.30;99.90
19279;DHT22;9773;47.062;15.446;2023-07-30T01:08:05;19.30;99.90
19279;DHT22;9773;47.062;15.446;2023-07-30T01:10:32;19.30;99.90
19279;DHT22;9773;47.062;15.446;2023-07-30T01:13:01;19.30;99.90
19279;DHT22;9773;47.062;15.446;2023-07-30T01:15:29;19.30;99.90
19279;DHT22;9773;47.062;15.446;2023-07-30T01:17:54;19.30;99.90
19279;DHT22;9773;47.062;15.446;2023-07-30T01:20:21;19.30;99.90
19279;DHT22;9773;47.062;15.446;2023-07-30T01:22:47;19.30;99.90
19279;DHT22;9773;47.062;15.446;2023-07-30T01:25:14;19.30;99.90
19279;DHT22;9773;47.062;15.446;2023-07-30T01:27:46;19.30;99.90
19279;DHT22;9773;47.062;15.446;2023-07-30T01:30:21;19.20;99.90
19279;DHT22;9773;47.062;15.446;2023-07-30T01:32:49;19.10;99.90
19279;DHT22;9773;47.062;15.446;2023-07-30T01:35:21;19.20;99.90
19279;DHT22;9773;47.062;15.446;2023-07-30T01:37:50;19.20;99.90
19279;DHT22;9773;47.062;15.446;2023-07-30T01:40:16;19.30;99.90
19279;DHT22;9773;47.062;15.446;2023-07-30T01:42:42;19.20;99.90
19279;DHT22;9773;47.062;15.446;2023-07-30T01:45:07;19.10;99.90
19279;DHT22;9773;47.062;15.446;2023-07-30T01:47:33;19.10;99.90
19279;DHT22;9773;47.062;15.446;2023-07-30T01:49:59;19.20;99.90
19279;DHT22;9773;47.062;15.446;2023-07-30T01:52:25;19.10;99.90
19279;DHT22;9773;47.062;15.446;2023-07-30T01:54:51;19.10;99.90
19279;DHT22;9773;47.062;15.446;2023-07-30T01:57:17;19.10;99.90
19279;DHT22;9773;47.062;15.446;2023-07-30T01:59:43;19.10;99.90
19279;DHT22;9773;47.062;15.446;2023-07-30T02:02:09;19.00;99.90
19279;DHT22;9773;47.062;15.446;2023-07-30T02:04:34;19.10;99.90
19279;DHT22;9773;47.062;15.446;2023-07-30T02:07:00;19.10;99.90
19279;DHT22;9773;47.062;15.446;2023-07-30T02:09:26;19.00;99.90
19279;DHT22;9773;47.062;15.446;2023-07-30T02:11:51;19.00;99.90
19279;DHT22;9773;47.062;15.446;2023-07-30T02:14:18;19.00;99.90
19279;DHT22;9773;47.062;15.446;2023-07-30T02:16:44;19.00;99.90
19279;DHT22;9773;47.062;15.446;2023-07-30T02:19:10;19.00;99.90
19279;DHT22;9773;47.062;15.446;2023-07-30T02:21:35;19.00;99.90
19279;DHT22;9773;47.062;15.446;2023-07-30T02:24:04;18.90;99.90
19279;DHT22;9773;47.062;15.446;2023-07-30T02:26:35;18.90;99.90
19279;DHT22;9773;47.062;15.446;2023-07-30T02:29:01;18.90;99.90
19279;DHT22;9773;47.062;15.446;2023-07-30T02:31:27;18.80;99.90
19279;DHT22;9773;47.062;15.446;2023-07-30T02:33:56;18.90;99.90
19279;DHT22;9773;47.062;15.446;2023-07-30T02:36:21;18.80;99.90
19279;DHT22;9773;47.062;15.446;2023-07-30T02:38:47;18.80;99.90
19279;DHT22;9773;47.062;15.446;2023-07-30T02:41:13;18.80;99.90
19279;DHT22;9773;47.062;15.446;2023-07-30T02:43:39;18.80;99.90
19279;DHT22;9773;47.062;15.446;2023-07-30T02:46:04;18.80;99.90
19279;DHT22;9773;47.062;15.446;2023-07-30T02:48:32;18.80;99.90
19279;DHT22;9773;47.062;15.446;2023-07-30T02:50:58;18.80;99.90
19279;DHT22;9773;47.062;15.446;2023-07-30T02:53:24;18.90;99.90
19279;DHT22;9773;47.062;15.446;2023-07-30T02:55:49;18.90;99.90
19279;DHT22;9773;47.062;15.446;2023-07-30T02:58:15;18.90;99.90
19279;DHT22;9773;47.062;15.446;2023-07-30T03:00:41;19.00;99.90
19279;DHT22;9773;47.062;15.446;2023-07-30T03:03:07;19.00;99.90
19279;DHT22;9773;47.062;15.446;2023-07-30T03:05:32;19.00;99.90
19279;DHT22;9773;47.062;15.446;2023-07-30T03:07:58;19.00;99.90
19279;DHT22;9773;47.062;15.446;2023-07-30T03:10:24;19.00;99.90
19279;DHT22;9773;47.062;15.446;2023-07-30T03:12:50;19.00;99.90
19279;DHT22;9773;47.062;15.446;2023-07-30T03:15:15;19.10;99.90
19279;DHT22;9773;47.062;15.446;2023-07-30T03:17:41;19.10;99.90
19279;DHT22;9773;47.062;15.446;2023-07-30T03:20:07;19.10;99.90
19279;DHT22;9773;47.062;15.446;2023-07-30T03:22:34;19.00;99.90
19279;DHT22;9773;47.062;15.446;2023-07-30T03:25:00;19.00;99.90
19279;DHT22;9773;47.062;15.446;2023-07-30T03:27:25;19.00;99.90
19279;DHT22;9773;47.062;15.446;2023-07-30T03:29:51;19.00;99.90
19279;DHT22;9773;47.062;15.446;2023-07-30T03:32:17;19.00;99.90
19279;DHT22;9773;47.062;15.446;2023-07-30T03:34:43;19.00;99.90
19279;DHT22;9773;47.062;15.446;2023-07-30T03:37:08;19.10;99.90
19279;DHT22;9773;47.062;15.446;2023-07-30T03:39:34;19.00;99.90
19279;DHT22;9773;47.062;15.446;2023-07-30T03:42:00;18.90;99.90
19279;DHT22;9773;47.062;15.446;2023-07-30T03:44:26;18.90;99.90
19279;DHT22;9773;47.062;15.446;2023-07-30T03:46:52;18.90;99.90
19279;DHT22;9773;47.062;15.446;2023-07-30T03:49:18;18.90;99.90
19279;DHT22;9773;47.062;15.446;2023-07-30T03:51:44;18.10;99.90
19279;DHT22;9773;47.062;15.446;2023-07-30T03:54:10;19.00;99.90
19279;DHT22;9773;47.062;15.446;2023-07-30T03:56:36;19.00;99.90
19279;DHT22;9773;47.062;15.446;2023-07-30T03:59:01;19.00;99.90
19279;DHT22;9773;47.062;15.446;2023-07-30T04:01:28;18.90;99.90
19279;DHT22;9773;47.062;15.446;2023-07-30T04:03:54;18.80;99.90
19279;DHT22;9773;47.062;15.446;2023-07-30T04:06:20;18.80;99.90
19279;DHT22;9773;47.062;15.446;2023-07-30T04:08:45;18.80;99.90
19279;DHT22;9773;47.062;15.446;2023-07-30T04:11:11;18.80;99.90
19279;DHT22;9773;47.062;15.446;2023-07-30T04:13:37;18.80;99.90
19279;DHT22;9773;47.062;15.446;2023-07-30T04:16:03;18.70;99.90
19279;DHT22;9773;47.062;15.446;2023-07-30T04:18:29;18.60;99.90
19279;DHT22;9773;47.062;15.446;2023-07-30T04:20:55;18.60;99.90
19279;DHT22;9773;47.062;15.446;2023-07-30T04:23:24;18.60;99.90
19279;DHT22;9773;47.062;15.446;2023-07-30T04:25:50;18.60;99.90
19279;DHT22;9773;47.062;15.446;2023-07-30T04:28:16;18.60;99.90
19279;DHT22;9773;47.062;15.446;2023-07-30T04:30:42;18.60;99.90
19279;DHT22;9773;47.062;15.446;2023-07-30T04:33:08;18.50;99.90
19279;DHT22;9773;47.062;15.446;2023-07-30T04:35:34;18.50;99.90
19279;DHT22;9773;47.062;15.446;2023-07-30T04:37:59;18.50;99.90
19279;DHT22;9773;47.062;15.446;2023-07-30T04:40:25;18.50;99.90
19279;DHT22;9773;47.062;15.446;2023-07-30T04:42:51;18.50;99.90
19279;DHT22;9773;47.062;15.446;2023-07-30T04:45:16;18.50;99.90
19279;DHT22;9773;47.062;15.446;2023-07-30T04:47:42;18.60;99.90
19279;DHT22;9773;47.062;15.446;2023-07-30T04:50:08;18.50;99.90
19279;DHT22;9773;47.062;15.446;2023-07-30T04:52:34;18.60;99.90
19279;DHT22;9773;47.062;15.446;2023-07-30T04:55:00;18.60;99.90
19279;DHT22;9773;47.062;15.446;2023-07-30T04:57:25;18.60;99.90
19279;DHT22;9773;47.062;15.446;2023-07-30T04:59:52;18.60;99.90
19279;DHT22;9773;47.062;15.446;2023-07-30T05:02:18;18.60;99.90
19279;DHT22;9773;47.062;15.446;2023-07-30T05:04:45;18.60;99.90
19279;DHT22;9773;47.062;15.446;2023-07-30T05:07:10;18.60;99.90
19279;DHT22;9773;47.062;15.446;2023-07-30T05:09:36;18.60;99.90
19279;DHT22;9773;47.062;15.446;2023-07-30T05:12:02;18.60;99.90
19279;DHT22;9773;47.062;15.446;2023-07-30T05:14:28;18.60;99.90
19279;DHT22;9773;47.062;15.446;2023-07-30T05:16:54;18.60;99.90
19279;DHT22;9773;47.062;15.446;2023-07-30T05:19:20;18.60;99.90
19279;DHT22;9773;47.062;15.446;2023-07-30T05:21:45;18.70;99.90
19279;DHT22;9773;47.062;15.446;2023-07-30T05:24:11;18.70;99.90
19279;DHT22;9773;47.062;15.446;2023-07-30T05:26:37;18.60;99.90
19279;DHT22;9773;47.062;15.446;2023-07-30T05:29:03;18.60;99.90
19279;DHT22;9773;47.062;15.446;2023-07-30T05:31:28;18.60;99.90
19279;DHT22;9773;47.062;15.446;2023-07-30T05:33:55;18.60;99.90
19279;DHT22;9773;47.062;15.446;2023-07-30T05:36:21;18.60;99.90
19279;DHT22;9773;47.062;15.446;2023-07-30T05:38:46;18.60;99.90
19279;DHT22;9773;47.062;15.446;2023-07-30T05:41:12;18.50;99.90
19279;DHT22;9773;47.062;15.446;2023-07-30T05:43:38;18.60;99.90
19279;DHT22;9773;47.062;15.446;2023-07-30T05:46:04;18.60;99.90
19279;DHT22;9773;47.062;15.446;2023-07-30T05:48:29;18.60;99.90
19279;DHT22;9773;47.062;15.446;2023-07-30T05:50:55;18.70;99.90
19279;DHT22;9773;47.062;15.446;2023-07-30T05:53:21;18.70;99.90
19279;DHT22;9773;47.062;15.446;2023-07-30T05:55:47;18.80;99.90
19279;DHT22;9773;47.062;15.446;2023-07-30T05:58:14;18.90;99.90
19279;DHT22;9773;47.062;15.446;2023-07-30T06:00:40;18.90;99.90
19279;DHT22;9773;47.062;15.446;2023-07-30T06:03:05;18.80;99.90
19279;DHT22;9773;47.062;15.446;2023-07-30T06:05:32;19.00;99.90
19279;DHT22;9773;47.062;15.446;2023-07-30T06:07:57;19.00;99.90
19279;DHT22;9773;47.062;15.446;2023-07-30T06:10:25;19.10;99.90
19279;DHT22;9773;47.062;15.446;2023-07-30T06:12:50;19.10;99.90
19279;DHT22;9773;47.062;15.446;2023-07-30T06:15:16;19.20;99.90
19279;DHT22;9773;47.062;15.446;2023-07-30T06:17:42;19.20;99.90
19279;DHT22;9773;47.062;15.446;2023-07-30T06:20:08;19.30;99.90
19279;DHT22;9773;47.062;15.446;2023-07-30T06:22:34;19.30;99.90
19279;DHT22;9773;47.062;15.446;2023-07-30T06:25:00;19.30;99.90
19279;DHT22;9773;47.062;15.446;2023-07-30T06:27:25;19.30;99.90
19279;DHT22;9773;47.062;15.446;2023-07-30T06:29:51;19.40;99.90
19279;DHT22;9773;47.062;15.446;2023-07-30T06:32:17;19.40;99.90
19279;DHT22;9773;47.062;15.446;2023-07-30T06:34:42;19.40;99.90
19279;DHT22;9773;47.062;15.446;2023-07-30T06:37:08;19.50;99.90
19279;DHT22;9773;47.062;15.446;2023-07-30T06:39:34;19.60;99.90
19279;DHT22;9773;47.062;15.446;2023-07-30T06:42:00;19.60;99.90
19279;DHT22;9773;47.062;15.446;2023-07-30T06:44:26;19.60;99.90
19279;DHT22;9773;47.062;15.446;2023-07-30T06:46:51;19.60;99.90
19279;DHT22;9773;47.062;15.446;2023-07-30T06:49:17;19.60;99.90
19279;DHT22;9773;47.062;15.446;2023-07-30T06:51:43;19.70;99.90
19279;DHT22;9773;47.062;15.446;2023-07-30T06:54:08;19.70;99.90
19279;DHT22;9773;47.062;15.446;2023-07-30T06:56:34;19.70;99.90
19279;DHT22;9773;47.062;15.446;2023-07-30T06:59:01;19.70;99.90
19279;DHT22;9773;47.062;15.446;2023-07-30T07:01:28;19.70;99.90
19279;DHT22;9773;47.062;15.446;2023-07-30T07:03:54;19.80;99.90
19279;DHT22;9773;47.062;15.446;2023-07-30T07:06:21;20.00;99.90
19279;DHT22;9773;47.062;15.446;2023-07-30T07:08:46;20.10;99.90
19279;DHT22;9773;47.062;15.446;2023-07-30T07:11:12;20.20;99.90
19279;DHT22;9773;47.062;15.446;2023-07-30T07:13:38;20.30;99.90
19279;DHT22;9773;47.062;15.446;2023-07-30T07:16:04;20.40;99.90
19279;DHT22;9773;47.062;15.446;2023-07-30T07:18:29;20.60;99.90
19279;DHT22;9773;47.062;15.446;2023-07-30T07:20:55;20.80;99.90
19279;DHT22;9773;47.062;15.446;2023-07-30T07:23:21;20.90;99.90
19279;DHT22;9773;47.062;15.446;2023-07-30T07:25:47;20.90;99.90
19279;DHT22;9773;47.062;15.446;2023-07-30T07:28:12;21.10;99.90
19279;DHT22;9773;47.062;15.446;2023-07-30T07:30:38;21.00;99.90
19279;DHT22;9773;47.062;15.446;2023-07-30T07:33:04;21.00;99.90
19279;DHT22;9773;47.062;15.446;2023-07-30T07:35:31;21.00;99.90
19279;DHT22;9773;47.062;15.446;2023-07-30T07:37:57;21.00;99.90
19279;DHT22;9773;47.062;15.446;2023-07-30T07:40:23;20.90;99.90
19279;DHT22;9773;47.062;15.446;2023-07-30T07:42:48;20.90;99.90
19279;DHT22;9773;47.062;15.446;2023-07-30T07:45:14;21.00;99.90
19279;DHT22;9773;47.062;15.446;2023-07-30T07:47:40;21.10;99.90
19279;DHT22;9773;47.062;15.446;2023-07-30T07:50:06;21.20;99.90
19279;DHT22;9773;47.062;15.446;2023-07-30T07:52:32;21.30;99.90
19279;DHT22;9773;47.062;15.446;2023-07-30T07:54:58;21.20;99.90
19279;DHT22;9773;47.062;15.446;2023-07-30T07:57:23;21.40;99.90
19279;DHT22;9773;47.062;15.446;2023-07-30T07:59:50;21.50;99.90
19279;DHT22;9773;47.062;15.446;2023-07-30T08:02:16;21.70;99.90
19279;DHT22;9773;47.062;15.446;2023-07-30T08:04:42;21.90;99.90
19279;DHT22;9773;47.062;15.446;2023-07-30T08:07:07;22.10;99.90
19279;DHT22;9773;47.062;15.446;2023-07-30T08:09:33;22.40;99.90
19279;DHT22;9773;47.062;15.446;2023-07-30T08:11:59;22.30;99.90
19279;DHT22;9773;47.062;15.446;2023-07-30T08:14:26;22.40;99.90
19279;DHT22;9773;47.062;15.446;2023-07-30T08:16:54;22.50;99.90
19279;DHT22;9773;47.062;15.446;2023-07-30T08:19:20;22.20;99.90
19279;DHT22;9773;47.062;15.446;2023-07-30T08:21:46;22.80;99.90
19279;DHT22;9773;47.062;15.446;2023-07-30T08:24:12;22.80;99.90
19279;DHT22;9773;47.062;15.446;2023-07-30T08:26:38;22.90;99.90
19279;DHT22;9773;47.062;15.446;2023-07-30T08:29:04;23.00;99.90
19279;DHT22;9773;47.062;15.446;2023-07-30T08:31:31;23.00;99.90
19279;DHT22;9773;47.062;15.446;2023-07-30T08:33:57;23.00;99.90
19279;DHT22;9773;47.062;15.446;2023-07-30T08:36:23;22.90;99.90
19279;DHT22;9773;47.062;15.446;2023-07-30T08:38:48;22.90;99.90
19279;DHT22;9773;47.062;15.446;2023-07-30T08:41:15;22.90;99.90
19279;DHT22;9773;47.062;15.446;2023-07-30T08:43:40;22.90;99.90
19279;DHT22;9773;47.062;15.446;2023-07-30T08:46:06;22.80;99.90
19279;DHT22;9773;47.062;15.446;2023-07-30T08:48:32;22.80;99.90
19279;DHT22;9773;47.062;15.446;2023-07-30T08:50:58;22.70;99.90
19279;DHT22;9773;47.062;15.446;2023-07-30T08:53:25;22.60;99.90
19279;DHT22;9773;47.062;15.446;2023-07-30T08:55:54;22.90;99.90
19279;DHT22;9773;47.062;15.446;2023-07-30T08:58:22;22.80;99.90
19279;DHT22;9773;47.062;15.446;2023-07-30T09:00:49;22.90;99.90
19279;DHT22;9773;47.062;15.446;2023-07-30T09:03:16;23.10;99.90
19279;DHT22;9773;47.062;15.446;2023-07-30T09:05:43;23.20;99.90
19279;DHT22;9773;47.062;15.446;2023-07-30T09:08:10;23.20;99.90
19279;DHT22;9773;47.062;15.446;2023-07-30T09:10:35;23.30;99.90
19279;DHT22;9773;47.062;15.446;2023-07-30T09:13:03;23.50;99.90
19279;DHT22;9773;47.062;15.446;2023-07-30T09:15:31;23.80;99.90
19279;DHT22;9773;47.062;15.446;2023-07-30T09:17:58;24.00;99.90
19279;DHT22;9773;47.062;15.446;2023-07-30T09:20:23;24.20;99.90
19279;DHT22;9773;47.062;15.446;2023-07-30T09:22:49;24.30;99.90
19279;DHT22;9773;47.062;15.446;2023-07-30T09:25:18;24.30;99.90
19279;DHT22;9773;47.062;15.446;2023-07-30T09:27:50;24.40;99.90
19279;DHT22;9773;47.062;15.446;2023-07-30T09:30:23;24.30;99.90
19279;DHT22;9773;47.062;15.446;2023-07-30T09:32:54;24.30;99.90
19279;DHT22;9773;47.062;15.446;2023-07-30T09:35:20;24.20;99.90
19279;DHT22;9773;47.062;15.446;2023-07-30T09:37:46;24.20;99.90
19279;DHT22;9773;47.062;15.446;2023-07-30T09:40:16;24.10;99.90
19279;DHT22;9773;47.062;15.446;2023-07-30T09:42:46;24.00;99.90
19279;DHT22;9773;47.062;15.446;2023-07-30T09:45:22;23.90;99.90
19279;DHT22;9773;47.062;15.446;2023-07-30T09:47:52;23.70;99.90
19279;DHT22;9773;47.062;15.446;2023-07-30T09:50:19;23.60;99.90
19279;DHT22;9773;47.062;15.446;2023-07-30T09:52:45;23.50;99.90
19279;DHT22;9773;47.062;15.446;2023-07-30T09:55:11;23.50;99.90
19279;DHT22;9773;47.062;15.446;2023-07-30T09:57:38;23.60;99.90
19279;DHT22;9773;47.062;15.446;2023-07-30T10:00:05;23.80;99.90
19279;DHT22;9773;47.062;15.446;2023-07-30T10:02:32;23.80;99.90
19279;DHT22;9773;47.062;15.446;2023-07-30T10:05:01;23.90;99.90
19279;DHT22;9773;47.062;15.446;2023-07-30T10:07:29;24.00;99.90
19279;DHT22;9773;47.062;15.446;2023-07-30T10:09:58;24.20;99.90
19279;DHT22;9773;47.062;15.446;2023-07-30T10:12:29;24.40;99.90
19279;DHT22;9773;47.062;15.446;2023-07-30T10:14:57;24.50;99.90
19279;DHT22;9773;47.062;15.446;2023-07-30T10:17:22;24.70;99.90
19279;DHT22;9773;47.062;15.446;2023-07-30T10:19:49;24.90;99.90
19279;DHT22;9773;47.062;15.446;2023-07-30T10:25:03;25.10;99.90
19279;DHT22;9773;47.062;15.446;2023-07-30T10:27:41;25.20;99.90
19279;DHT22;9773;47.062;15.446;2023-07-30T10:30:16;25.40;99.90
19279;DHT22;9773;47.062;15.446;2023-07-30T10:38:44;25.90;99.90
19279;DHT22;9773;47.062;15.446;2023-07-30T10:41:13;26.30;99.90
19279;DHT22;9773;47.062;15.446;2023-07-30T10:43:41;26.40;99.90
19279;DHT22;9773;47.062;15.446;2023-07-30T10:46:11;26.50;99.90
19279;DHT22;9773;47.062;15.446;2023-07-30T10:48:44;26.50;99.90
19279;DHT22;9773;47.062;15.446;2023-07-30T10:51:15;26.40;99.90
19279;DHT22;9773;47.062;15.446;2023-07-30T10:53:49;26.20;99.90
19279;DHT22;9773;47.062;15.446;2023-07-30T10:56:18;25.80;99.90
19279;DHT22;9773;47.062;15.446;2023-07-30T10:58:49;25.60;99.90
19279;DHT22;9773;47.062;15.446;2023-07-30T11:01:17;25.30;99.90
19279;DHT22;9773;47.062;15.446;2023-07-30T11:03:43;25.20;99.90
19279;DHT22;9773;47.062;15.446;2023-07-30T11:06:08;25.10;99.90
19279;DHT22;9773;47.062;15.446;2023-07-30T11:08:39;25.00;99.90
19279;DHT22;9773;47.062;15.446;2023-07-30T11:11:06;24.90;99.90
19279;DHT22;9773;47.062;15.446;2023-07-30T11:13:42;24.90;99.90
19279;DHT22;9773;47.062;15.446;2023-07-30T11:16:09;24.70;99.90
19279;DHT22;9773;47.062;15.446;2023-07-30T11:18:40;24.80;99.90
19279;DHT22;9773;47.062;15.446;2023-07-30T11:21:14;24.80;99.90
19279;DHT22;9773;47.062;15.446;2023-07-30T11:23:43;24.90;99.90
19279;DHT22;9773;47.062;15.446;2023-07-30T11:26:17;25.00;99.90
19279;DHT22;9773;47.062;15.446;2023-07-30T11:28:43;25.10;99.90
19279;DHT22;9773;47.062;15.446;2023-07-30T11:31:18;25.30;99.90
19279;DHT22;9773;47.062;15.446;2023-07-30T11:33:46;25.10;99.90
19279;DHT22;9773;47.062;15.446;2023-07-30T11:36:18;25.10;99.90
19279;DHT22;9773;47.062;15.446;2023-07-30T11:38:45;25.10;99.90
19279;DHT22;9773;47.062;15.446;2023-07-30T11:41:12;25.00;99.90
19279;DHT22;9773;47.062;15.446;2023-07-30T11:43:41;25.00;99.90
19279;DHT22;9773;47.062;15.446;2023-07-30T11:46:17;25.10;99.90
19279;DHT22;9773;47.062;15.446;2023-07-30T11:48:47;25.00;99.90
19279;DHT22;9773;47.062;15.446;2023-07-30T11:51:33;25.10;99.90
19279;DHT22;9773;47.062;15.446;2023-07-30T11:54:00;25.20;99.90
19279;DHT22;9773;47.062;15.446;2023-07-30T11:56:31;25.30;99.90
19279;DHT22;9773;47.062;15.446;2023-07-30T11:59:01;25.50;99.90
19279;DHT22;9773;47.062;15.446;2023-07-30T12:01:32;25.60;99.90
19279;DHT22;9773;47.062;15.446;2023-07-30T12:04:03;25.60;99.90
19279;DHT22;9773;47.062;15.446;2023-07-30T12:06:44;25.60;99.90
19279;DHT22;9773;47.062;15.446;2023-07-30T12:09:15;25.70;99.90
19279;DHT22;9773;47.062;15.446;2023-07-30T12:12:01;25.80;99.90
19279;DHT22;9773;47.062;15.446;2023-07-30T12:17:14;25.80;99.90
19279;DHT22;9773;47.062;15.446;2023-07-30T12:19:41;25.80;99.90
19279;DHT22;9773;47.062;15.446;2023-07-30T12:22:07;25.80;99.90
19279;DHT22;9773;47.062;15.446;2023-07-30T12:24:32;25.90;99.90
19279;DHT22;9773;47.062;15.446;2023-07-30T12:26:58;26.00;99.90
19279;DHT22;9773;47.062;15.446;2023-07-30T12:29:25;25.90;99.90
19279;DHT22;9773;47.062;15.446;2023-07-30T12:31:51;25.90;99.90
19279;DHT22;9773;47.062;15.446;2023-07-30T12:34:22;25.80;99.90
19279;DHT22;9773;47.062;15.446;2023-07-30T12:36:48;25.90;99.90
19279;DHT22;9773;47.062;15.446;2023-07-30T12:39:14;26.00;99.90
19279;DHT22;9773;47.062;15.446;2023-07-30T12:41:40;26.00;99.90
19279;DHT22;9773;47.062;15.446;2023-07-30T12:44:05;26.00;99.90
19279;DHT22;9773;47.062;15.446;2023-07-30T12:46:32;26.10;99.90
19279;DHT22;9773;47.062;15.446;2023-07-30T12:48:59;26.20;99.90
19279;DHT22;9773;47.062;15.446;2023-07-30T12:51:30;26.20;99.90
19279;DHT22;9773;47.062;15.446;2023-07-30T12:53:56;26.20;99.90
19279;DHT22;9773;47.062;15.446;2023-07-30T12:56:22;26.10;99.90
19279;DHT22;9773;47.062;15.446;2023-07-30T12:58:48;26.30;99.90
19279;DHT22;9773;47.062;15.446;2023-07-30T13:01:14;26.30;99.90
19279;DHT22;9773;47.062;15.446;2023-07-30T13:03:40;26.50;99.90
19279;DHT22;9773;47.062;15.446;2023-07-30T13:06:11;26.60;99.90
19279;DHT22;9773;47.062;15.446;2023-07-30T13:08:39;26.40;99.90
19279;DHT22;9773;47.062;15.446;2023-07-30T13:11:08;26.20;99.90
19279;DHT22;9773;47.062;15.446;2023-07-30T13:13:35;26.20;99.90
19279;DHT22;9773;47.062;15.446;2023-07-30T13:16:02;26.30;99.90
19279;DHT22;9773;47.062;15.446;2023-07-30T13:18:29;26.40;99.90
19279;DHT22;9773;47.062;15.446;2023-07-30T13:20:55;26.40;99.90
19279;DHT22;9773;47.062;15.446;2023-07-30T13:23:22;26.40;99.90
19279;DHT22;9773;47.062;15.446;2023-07-30T13:25:51;26.40;99.90
19279;DHT22;9773;47.062;15.446;2023-07-30T13:28:17;26.40;99.90
19279;DHT22;9773;47.062;15.446;2023-07-30T13:30:43;26.40;99.90
19279;DHT22;9773;47.062;15.446;2023-07-30T13:33:09;26.40;99.90
19279;DHT22;9773;47.062;15.446;2023-07-30T13:35:37;26.50;99.90
19279;DHT22;9773;47.062;15.446;2023-07-30T13:38:02;26.70;99.90
19279;DHT22;9773;47.062;15.446;2023-07-30T13:40:29;26.70;99.90
19279;DHT22;9773;47.062;15.446;2023-07-30T13:42:55;26.70;99.90
19279;DHT22;9773;47.062;15.446;2023-07-30T13:45:21;26.70;99.90
19279;DHT22;9773;47.062;15.446;2023-07-30T13:47:50;26.70;99.90
19279;DHT22;9773;47.062;15.446;2023-07-30T13:50:17;26.70;99.90
19279;DHT22;9773;47.062;15.446;2023-07-30T13:52:43;26.60;99.90
19279;DHT22;9773;47.062;15.446;2023-07-30T13:55:10;26.50;99.90
19279;DHT22;9773;47.062;15.446;2023-07-30T13:57:36;26.50;99.90
19279;DHT22;9773;47.062;15.446;2023-07-30T14:00:03;26.40;99.90
19279;DHT22;9773;47.062;15.446;2023-07-30T14:02:29;26.40;99.90
19279;DHT22;9773;47.062;15.446;2023-07-30T14:04:56;26.40;99.90
19279;DHT22;9773;47.062;15.446;2023-07-30T14:07:22;26.50;99.90
19279;DHT22;9773;47.062;15.446;2023-07-30T14:09:48;26.50;99.90
19279;DHT22;9773;47.062;15.446;2023-07-30T14:12:15;26.60;99.90
19279;DHT22;9773;47.062;15.446;2023-07-30T14:14:43;26.60;99.90
19279;DHT22;9773;47.062;15.446;2023-07-30T14:17:09;26.70;99.90
19279;DHT22;9773;47.062;15.446;2023-07-30T14:19:35;26.70;99.90
19279;DHT22;9773;47.062;15.446;2023-07-30T14:22:02;26.70;99.90
19279;DHT22;9773;47.062;15.446;2023-07-30T14:24:28;26.80;99.90
19279;DHT22;9773;47.062;15.446;2023-07-30T14:26:55;26.90;99.90
19279;DHT22;9773;47.062;15.446;2023-07-30T14:29:21;27.00;99.90
19279;DHT22;9773;47.062;15.446;2023-07-30T14:31:46;27.10;99.90
19279;DHT22;9773;47.062;15.446;2023-07-30T14:34:12;27.10;99.90
19279;DHT22;9773;47.062;15.446;2023-07-30T14:36:38;27.10;99.90
19279;DHT22;9773;47.062;15.446;2023-07-30T14:39:04;27.30;99.90
19279;DHT22;9773;47.062;15.446;2023-07-30T14:41:30;27.40;99.90
19279;DHT22;9773;47.062;15.446;2023-07-30T14:43:56;27.60;99.90
19279;DHT22;9773;47.062;15.446;2023-07-30T14:46:22;27.70;99.90
19279;DHT22;9773;47.062;15.446;2023-07-30T14:48:48;27.80;99.90
19279;DHT22;9773;47.062;15.446;2023-07-30T14:51:15;27.80;99.90
19279;DHT22;9773;47.062;15.446;2023-07-30T14:53:41;27.90;99.90
19279;DHT22;9773;47.062;15.446;2023-07-30T14:56:07;28.00;99.90
19279;DHT22;9773;47.062;15.446;2023-07-30T14:58:33;27.90;99.90
19279;DHT22;9773;47.062;15.446;2023-07-30T15:00:59;27.70;99.90
19279;DHT22;9773;47.062;15.446;2023-07-30T15:03:25;27.40;99.90
19279;DHT22;9773;47.062;15.446;2023-07-30T15:05:51;27.10;99.90
19279;DHT22;9773;47.062;15.446;2023-07-30T15:08:17;26.90;99.90
19279;DHT22;9773;47.062;15.446;2023-07-30T15:10:42;26.80;99.90
19279;DHT22;9773;47.062;15.446;2023-07-30T15:13:08;26.60;99.40
19279;DHT22;9773;47.062;15.446;2023-07-30T15:15:34;26.40;99.50
19279;DHT22;9773;47.062;15.446;2023-07-30T15:18:00;26.20;99.80
19279;DHT22;9773;47.062;15.446;2023-07-30T15:20:26;26.10;99.90
19279;DHT22;9773;47.062;15.446;2023-07-30T15:22:53;26.00;99.90
19279;DHT22;9773;47.062;15.446;2023-07-30T15:25:19;25.80;99.90
19279;DHT22;9773;47.062;15.446;2023-07-30T15:27:45;25.60;99.90
19279;DHT22;9773;47.062;15.446;2023-07-30T15:30:11;25.60;99.90
19279;DHT22;9773;47.062;15.446;2023-07-30T15:32:46;25.60;99.90
19279;DHT22;9773;47.062;15.446;2023-07-30T15:35:12;25.50;99.90
19279;DHT22;9773;47.062;15.446;2023-07-30T15:37:39;25.60;99.90
19279;DHT22;9773;47.062;15.446;2023-07-30T15:40:06;25.60;99.90